createdAt,value
2022-09-06T00:01:19.117Z,10.40
2022-09-06T00:03:45.896Z,7.47
2022-09-06T00:06:15.713Z,8.02
2022-09-06T00:08:43.505Z,10.90
2022-09-06T00:11:12.242Z,9.52
2022-09-06T00:13:38.777Z,6.07
2022-09-06T00:16:06.341Z,6.45
2022-09-06T00:18:35.339Z,14.82
2022-09-06T00:21:01.826Z,6.47
2022-09-06T00:23:28.249Z,10.88
2022-09-06T00:26:01.360Z,8.35
2022-09-06T00:28:27.955Z,7.20
2022-09-06T00:30:54.442Z,9.00
2022-09-06T00:33:20.880Z,10.45
2022-09-06T00:35:49.284Z,7.47
2022-09-06T00:38:15.772Z,7.53
2022-09-06T00:40:42.577Z,10.40
2022-09-06T00:43:11.363Z,8.43
2022-09-06T00:45:42.696Z,9.23
2022-09-06T00:48:09.655Z,14.63
2022-09-06T00:50:36.243Z,8.43
2022-09-06T00:53:05.068Z,10.20
2022-09-06T00:55:31.579Z,10.55
2022-09-06T00:58:02.984Z,10.05
2022-09-06T01:00:31.767Z,11.05
2022-09-06T01:02:58.227Z,9.85
2022-09-06T01:05:35.588Z,12.68
2022-09-06T01:08:21.102Z,10.15
2022-09-06T01:10:47.527Z,7.32
2022-09-06T01:13:29.384Z,9.38
2022-09-06T01:15:58.969Z,10.68
2022-09-06T01:18:50.229Z,9.15
2022-09-06T01:21:16.718Z,11.88
2022-09-06T01:24:18.888Z,9.75
2022-09-06T01:26:57.455Z,10.45
2022-09-06T01:29:23.938Z,9.63
2022-09-06T01:31:57.841Z,8.88
2022-09-06T01:34:24.271Z,8.30
2022-09-06T01:37:13.477Z,9.20
2022-09-06T01:39:40.966Z,9.25
2022-09-06T01:42:13.424Z,8.95
2022-09-06T01:44:42.561Z,10.05
2022-09-06T01:47:35.566Z,12.07
2022-09-06T01:50:11.218Z,12.60
2022-09-06T01:52:46.778Z,12.85
2022-09-06T01:55:32.108Z,7.70
2022-09-06T01:58:01.504Z,9.38
2022-09-06T02:00:27.893Z,16.15
2022-09-06T02:03:06.560Z,11.30
2022-09-06T02:05:38.352Z,8.40
2022-09-06T02:08:20.418Z,9.07
2022-09-06T02:10:52.925Z,11.27
2022-09-06T02:13:19.889Z,11.38
2022-09-06T02:15:52.727Z,12.82
2022-09-06T02:18:21.585Z,7.80
2022-09-06T02:20:52.166Z,10.68
2022-09-06T02:23:20.601Z,7.55
2022-09-06T02:25:49.731Z,13.07
2022-09-06T02:28:16.701Z,7.90
2022-09-06T02:30:45.156Z,10.00
2022-09-06T02:33:14.523Z,11.35
2022-09-06T02:35:45.749Z,7.50
2022-09-06T02:38:12.390Z,10.50
2022-09-06T02:40:39.185Z,7.32
2022-09-06T02:43:05.781Z,9.55
2022-09-06T02:45:32.108Z,7.05
2022-09-06T02:47:58.598Z,9.30
2022-09-06T02:50:24.951Z,11.00
2022-09-06T02:53:26.875Z,12.27
2022-09-06T02:55:53.205Z,10.25
2022-09-06T02:58:19.700Z,7.45
2022-09-06T03:00:46.099Z,9.07
2022-09-06T03:03:12.529Z,8.32
2022-09-06T03:05:38.888Z,11.10
2022-09-06T03:08:05.722Z,8.20
2022-09-06T03:10:32.131Z,8.85
2022-09-06T03:12:58.591Z,10.65
2022-09-06T03:15:25.096Z,10.60
2022-09-06T03:17:51.424Z,10.25
2022-09-06T03:20:17.831Z,9.65
2022-09-06T03:22:44.773Z,12.68
2022-09-06T03:25:11.280Z,10.55
2022-09-06T03:27:37.680Z,14.68
2022-09-06T03:30:04.954Z,13.77
2022-09-06T03:32:31.321Z,10.70
2022-09-06T03:34:58.071Z,11.45
2022-09-06T03:37:24.408Z,8.55
2022-09-06T03:39:50.768Z,10.80
2022-09-06T03:42:17.170Z,11.07
2022-09-06T03:44:43.569Z,11.70
2022-09-06T03:47:12.332Z,12.13
2022-09-06T03:49:41.147Z,11.90
2022-09-06T03:52:07.554Z,9.35
2022-09-06T03:54:33.968Z,13.13
2022-09-06T03:57:00.322Z,10.63
2022-09-06T03:59:26.669Z,9.57
2022-09-06T04:01:53.038Z,10.77
2022-09-06T04:04:21.754Z,10.35
2022-09-06T04:06:48.090Z,11.38
2022-09-06T04:09:15.336Z,10.02
2022-09-06T04:11:44.959Z,13.70
2022-09-06T04:14:11.605Z,8.27
2022-09-06T04:16:38.157Z,10.38
2022-09-06T04:19:04.551Z,9.18
2022-09-06T04:21:33.281Z,8.40
2022-09-06T04:23:59.977Z,9.82
2022-09-06T04:26:26.323Z,9.82
2022-09-06T04:28:52.665Z,9.07
2022-09-06T04:31:19.047Z,6.50
2022-09-06T04:33:45.467Z,7.70
2022-09-06T04:36:11.885Z,9.82
2022-09-06T04:38:42.499Z,11.55
2022-09-06T04:41:09.763Z,9.25
2022-09-06T04:43:36.182Z,10.40
2022-09-06T04:46:06.131Z,9.20
2022-09-06T04:48:32.857Z,8.57
2022-09-06T04:50:59.189Z,8.70
2022-09-06T04:53:25.549Z,8.82
2022-09-06T04:55:51.969Z,14.90
2022-09-06T04:58:18.368Z,11.55
2022-09-06T05:00:44.918Z,10.10
2022-09-06T05:03:11.293Z,13.30
2022-09-06T05:05:37.695Z,10.13
2022-09-06T05:08:04.074Z,13.82
2022-09-06T05:10:30.926Z,13.13
2022-09-06T05:12:57.327Z,12.50
2022-09-06T05:15:24.003Z,9.63
2022-09-06T05:17:50.395Z,12.43
2022-09-06T05:20:17.088Z,13.68
2022-09-06T05:22:43.445Z,12.13
2022-09-06T05:25:09.923Z,13.57
2022-09-06T05:27:36.539Z,10.82
2022-09-06T05:30:04.081Z,8.07
2022-09-06T05:32:30.540Z,11.32
2022-09-06T05:34:56.890Z,10.48
2022-09-06T05:37:23.384Z,13.07
2022-09-06T05:39:49.809Z,7.95
2022-09-06T05:42:19.357Z,9.90
2022-09-06T05:44:45.985Z,11.77
2022-09-06T05:47:12.364Z,10.13
2022-09-06T05:49:38.798Z,10.40
2022-09-06T05:52:05.138Z,11.43
2022-09-06T05:54:31.824Z,10.88
2022-09-06T05:56:58.196Z,16.45
2022-09-06T05:59:24.590Z,17.48
2022-09-06T06:01:52.359Z,15.02
2022-09-06T06:04:19.534Z,11.63
2022-09-06T06:06:49.267Z,14.80
2022-09-06T06:09:16.195Z,15.70
2022-09-06T06:11:42.663Z,14.25
2022-09-06T06:14:09.269Z,13.85
2022-09-06T06:16:35.850Z,13.32
2022-09-06T06:19:02.404Z,14.18
2022-09-06T06:21:29.884Z,17.92
2022-09-06T06:24:00.480Z,18.83
2022-09-06T06:26:27.796Z,17.02
2022-09-06T06:28:55.478Z,18.55
2022-09-06T06:31:22.621Z,16.08
2022-09-06T06:33:49.553Z,15.40
2022-09-06T06:36:15.929Z,16.40
2022-09-06T06:38:43.222Z,15.70
2022-09-06T06:41:10.588Z,17.92
2022-09-06T06:43:37.741Z,22.95
2022-09-06T06:46:04.958Z,15.80
2022-09-06T06:48:31.671Z,18.23
2022-09-06T06:51:00.437Z,17.63
2022-09-06T06:53:27.127Z,17.88
2022-09-06T06:55:54.099Z,19.95
2022-09-06T06:58:20.815Z,16.50
2022-09-06T07:00:49.861Z,15.50
2022-09-06T07:03:16.329Z,18.52
2022-09-06T07:08:29.820Z,17.60
2022-09-06T07:10:56.256Z,15.30
2022-09-06T07:13:22.578Z,15.25
2022-09-06T07:15:48.945Z,13.20
2022-09-06T07:18:18.138Z,12.20
2022-09-06T07:26:24.570Z,10.80
2022-09-06T07:29:00.208Z,14.90
2022-09-06T07:34:14.506Z,13.27
2022-09-06T07:36:40.864Z,11.20
2022-09-06T07:39:07.427Z,15.90
2022-09-06T07:41:34.166Z,11.15
2022-09-06T07:44:00.603Z,9.40
2022-09-06T07:46:27.055Z,7.72
2022-09-06T07:48:53.504Z,12.65
2022-09-06T07:51:20.673Z,7.85
2022-09-06T07:53:57.927Z,6.68
2022-09-06T07:56:31.011Z,4.20
2022-09-06T07:58:57.452Z,8.15
2022-09-06T08:01:28.022Z,4.97
2022-09-06T08:03:57.093Z,4.35
2022-09-06T08:06:28.440Z,5.90
2022-09-06T08:11:28.458Z,8.48
2022-09-06T08:13:55.608Z,11.20
2022-09-06T08:16:24.441Z,5.93
2022-09-06T08:18:58.225Z,9.48
2022-09-06T08:21:25.446Z,5.93
2022-09-06T08:23:56.358Z,9.15
2022-09-06T08:26:28.335Z,6.75
2022-09-06T08:28:55.849Z,6.78
2022-09-06T08:31:22.256Z,7.97
2022-09-06T08:33:48.718Z,5.38
2022-09-06T08:36:18.546Z,6.82
2022-09-06T08:38:47.244Z,4.90
2022-09-06T08:41:16.691Z,8.27
2022-09-06T08:46:41.169Z,6.65
2022-09-06T08:49:08.016Z,6.00
2022-09-06T08:51:49.394Z,7.65
2022-09-06T08:54:20.649Z,5.68
2022-09-06T08:57:02.907Z,6.63
2022-09-06T08:59:34.581Z,9.70
2022-09-06T09:02:04.083Z,5.45
2022-09-06T09:04:30.940Z,9.18
2022-09-06T09:07:06.405Z,7.47
2022-09-06T09:09:33.369Z,7.45
2022-09-06T09:12:00.624Z,5.70
2022-09-06T09:14:26.953Z,4.78
2022-09-06T09:16:54.949Z,9.07
2022-09-06T09:19:23.550Z,6.68
2022-09-06T09:21:49.935Z,5.68
2022-09-06T09:24:18.851Z,4.72
2022-09-06T09:26:54.516Z,5.82
2022-09-06T09:29:26.724Z,3.88
2022-09-06T09:31:54.302Z,7.22
2022-09-06T09:34:26.721Z,5.45
2022-09-06T09:39:59.069Z,4.88
2022-09-06T09:42:29.827Z,5.03
2022-09-06T09:44:56.676Z,5.63
2022-09-06T09:47:30.151Z,6.00
2022-09-06T09:49:58.919Z,5.72
2022-09-06T09:52:27.168Z,4.35
2022-09-06T09:54:56.151Z,5.10
2022-09-06T09:57:23.177Z,6.88
2022-09-06T09:59:53.893Z,4.40
2022-09-06T10:02:33.360Z,4.57
2022-09-06T10:05:08.171Z,10.50
2022-09-06T10:07:34.956Z,4.82
2022-09-06T10:10:05.022Z,2.67
2022-09-06T10:12:32.583Z,7.10
2022-09-06T10:15:01.239Z,8.70
2022-09-06T10:17:30.711Z,6.95
2022-09-06T10:19:59.643Z,3.83
2022-09-06T10:22:30.545Z,8.88
2022-09-06T10:25:29.427Z,5.05
2022-09-06T10:28:11.905Z,5.53
2022-09-06T10:30:43.604Z,3.90
2022-09-06T10:33:16.020Z,4.28
2022-09-06T10:35:42.375Z,3.40
2022-09-06T10:38:13.323Z,5.05
2022-09-06T10:40:39.741Z,7.95
2022-09-06T10:43:08.798Z,3.70
2022-09-06T10:45:43.223Z,6.95
2022-09-06T10:48:18.821Z,3.05
2022-09-06T10:50:50.431Z,4.20
2022-09-06T10:53:34.943Z,2.22
2022-09-06T10:56:03.358Z,4.15
2022-09-06T11:01:29.132Z,10.73
2022-09-06T11:04:04.118Z,3.70
2022-09-06T11:06:35.522Z,3.83
2022-09-06T11:09:17.789Z,5.35
2022-09-06T11:11:47.036Z,5.78
2022-09-06T11:14:14.100Z,6.13
2022-09-06T11:16:44.838Z,3.78
2022-09-06T11:19:17.570Z,4.53
2022-09-06T11:21:50.618Z,5.20
2022-09-06T11:24:26.088Z,2.80
2022-09-06T11:27:02.999Z,5.60
2022-09-06T11:29:29.842Z,3.30
2022-09-06T11:34:52.612Z,5.18
2022-09-06T11:37:27.702Z,8.23
2022-09-06T11:40:30.030Z,6.57
2022-09-06T11:42:58.674Z,3.47
2022-09-06T11:45:42.593Z,3.33
2022-09-06T11:48:24.343Z,7.28
2022-09-06T11:50:53.795Z,7.43
2022-09-06T11:53:21.270Z,2.42
2022-09-06T11:55:50.633Z,7.82
2022-09-06T11:58:16.947Z,9.80
2022-09-06T12:00:44.444Z,6.57
2022-09-06T12:06:19.248Z,5.47
2022-09-06T12:08:46.525Z,7.03
2022-09-06T12:11:23.362Z,5.20
2022-09-06T12:13:54.980Z,2.72
2022-09-06T12:16:21.811Z,3.97
2022-09-06T12:18:48.202Z,6.28
2022-09-06T12:21:33.219Z,2.85
2022-09-06T12:24:02.504Z,4.05
2022-09-06T12:26:44.285Z,4.95
2022-09-06T12:29:10.833Z,4.25
2022-09-06T12:31:44.134Z,2.40
2022-09-06T12:36:50.732Z,3.47
2022-09-06T12:39:21.304Z,6.70
2022-09-06T12:41:54.991Z,3.65
2022-09-06T12:44:28.196Z,3.70
2022-09-06T12:46:54.612Z,3.15
2022-09-06T12:49:22.281Z,3.90
2022-09-06T12:51:48.829Z,3.72
2022-09-06T12:54:26.254Z,3.83
2022-09-06T12:56:55.254Z,6.97
2022-09-06T12:59:21.684Z,4.60
2022-09-06T13:02:14.465Z,3.67
2022-09-06T13:04:46.978Z,3.90
2022-09-06T13:07:15.081Z,5.80
2022-09-06T13:09:46.586Z,3.78
2022-09-06T13:12:31.326Z,2.28
2022-09-06T13:15:01.391Z,3.25
2022-09-06T13:17:29.052Z,3.17
2022-09-06T13:19:55.497Z,7.47
2022-09-06T13:22:59.790Z,2.47
2022-09-06T13:25:26.671Z,5.05
2022-09-06T13:27:58.974Z,5.32
2022-09-06T13:30:32.879Z,4.50
2022-09-06T13:32:59.786Z,2.95
2022-09-06T13:35:29.567Z,3.50
2022-09-06T13:38:14.872Z,3.22
2022-09-06T13:41:10.573Z,4.80
2022-09-06T13:43:41.844Z,9.13
2022-09-06T13:46:09.704Z,2.95
2022-09-06T13:48:36.269Z,3.20
2022-09-06T13:51:03.873Z,2.85
2022-09-06T13:53:31.676Z,6.53
2022-09-06T13:56:00.433Z,3.15
2022-09-06T13:58:29.759Z,9.55
2022-09-06T14:01:01.009Z,5.45
2022-09-06T14:03:28.971Z,8.82
2022-09-06T14:05:55.452Z,6.80
2022-09-06T14:08:21.803Z,4.82
2022-09-06T14:10:48.474Z,4.80
2022-09-06T14:13:18.317Z,7.45
2022-09-06T14:15:45.628Z,5.85
2022-09-06T14:18:14.713Z,5.72
2022-09-06T14:20:50.852Z,4.68
2022-09-06T14:23:19.465Z,3.45
2022-09-06T14:25:48.267Z,6.97
2022-09-06T14:28:17.495Z,4.45
2022-09-06T14:30:48.890Z,2.97
2022-09-06T14:33:15.388Z,2.42
2022-09-06T14:35:42.125Z,7.88
2022-09-06T14:38:08.565Z,3.08
2022-09-06T14:40:38.712Z,3.00
2022-09-06T14:43:05.857Z,3.72
2022-09-06T14:45:35.614Z,3.58
2022-09-06T14:48:02.237Z,3.55
2022-09-06T14:50:28.896Z,3.70
2022-09-06T14:52:55.376Z,6.07
2022-09-06T14:55:21.817Z,1.98
2022-09-06T14:57:50.593Z,10.65
2022-09-06T15:00:17.804Z,6.05
2022-09-06T15:02:44.260Z,3.42
2022-09-06T15:05:10.738Z,1.65
2022-09-06T15:07:38.177Z,7.20
2022-09-06T15:10:04.800Z,4.15
2022-09-06T15:12:31.231Z,10.45
2022-09-06T15:14:57.594Z,4.93
2022-09-06T15:17:23.996Z,7.38
2022-09-06T15:19:50.599Z,4.07
2022-09-06T15:22:17.058Z,4.35
2022-09-06T15:24:45.994Z,4.93
2022-09-06T15:27:12.434Z,6.32
2022-09-06T15:29:42.548Z,3.60
2022-09-06T15:32:11.441Z,5.63
2022-09-06T15:34:40.668Z,4.05
2022-09-06T15:37:07.088Z,3.40
2022-09-06T15:39:33.595Z,2.53
2022-09-06T15:42:02.245Z,7.40
2022-09-06T15:44:28.626Z,5.75
2022-09-06T15:46:58.047Z,2.63
2022-09-06T15:49:31.818Z,16.95
2022-09-06T15:52:01.500Z,6.38
2022-09-06T15:54:46.590Z,5.53
2022-09-06T15:57:14.417Z,9.07
2022-09-06T15:59:41.244Z,5.57
2022-09-06T16:02:08.220Z,4.32
2022-09-06T16:04:40.536Z,5.28
2022-09-06T16:07:09.773Z,6.97
2022-09-06T16:09:36.193Z,4.13
2022-09-06T16:12:02.683Z,5.43
2022-09-06T16:14:29.440Z,4.13
2022-09-06T16:16:56.275Z,5.05
2022-09-06T16:19:25.946Z,27.70
2022-09-06T16:21:52.366Z,15.18
2022-09-06T16:24:19.275Z,3.05
2022-09-06T16:26:46.580Z,3.35
2022-09-06T16:29:13.909Z,19.08
2022-09-06T16:31:40.928Z,7.28
2022-09-06T16:34:12.950Z,6.15
2022-09-06T16:36:39.747Z,3.33
2022-09-06T16:39:06.630Z,7.10
2022-09-06T16:41:41.047Z,3.20
2022-09-06T16:44:08.191Z,3.70
2022-09-06T16:46:34.731Z,5.78
2022-09-06T16:49:02.825Z,4.97
2022-09-06T16:51:31.087Z,4.88
2022-09-06T16:53:58.036Z,9.07
2022-09-06T16:56:25.434Z,5.65
2022-09-06T16:58:52.907Z,4.60
2022-09-06T17:01:19.807Z,8.57
2022-09-06T17:03:47.539Z,4.60
2022-09-06T17:06:21.664Z,6.40
2022-09-06T17:08:48.123Z,3.80
2022-09-06T17:11:19.319Z,7.07
2022-09-06T17:13:47.252Z,4.22
2022-09-06T17:16:32.571Z,9.50
2022-09-06T17:18:59.635Z,12.55
2022-09-06T17:21:26.108Z,5.78
2022-09-06T17:23:52.688Z,6.72
2022-09-06T17:26:20.625Z,4.00
2022-09-06T17:28:47.370Z,6.93
2022-09-06T17:31:13.848Z,8.13
2022-09-06T17:33:43.394Z,5.90
2022-09-06T17:36:16.960Z,7.60
2022-09-06T17:41:21.305Z,5.07
2022-09-06T17:43:47.947Z,6.20
2022-09-06T17:46:19.185Z,5.75
2022-09-06T17:48:48.107Z,11.10
2022-09-06T17:51:14.499Z,8.60
2022-09-06T17:53:43.984Z,4.82
2022-09-06T17:56:13.955Z,5.57
2022-09-06T17:58:41.159Z,4.85
2022-09-06T18:01:12.100Z,5.45
2022-09-06T18:03:39.596Z,3.63
2022-09-06T18:06:07.915Z,5.43
2022-09-06T18:08:35.439Z,7.60
2022-09-06T18:11:14.580Z,5.32
2022-09-06T18:13:42.313Z,4.93
2022-09-06T18:16:09.780Z,6.78
2022-09-06T18:18:38.792Z,5.97
2022-09-06T18:21:06.975Z,6.15
2022-09-06T18:23:36.322Z,5.32
2022-09-06T18:26:04.536Z,4.72
2022-09-06T18:28:31.593Z,5.65
2022-09-06T18:30:58.783Z,8.80
2022-09-06T18:33:25.466Z,5.97
2022-09-06T18:35:52.177Z,9.40
2022-09-06T18:38:18.659Z,7.53
2022-09-06T18:40:55.575Z,7.32
2022-09-06T18:43:22.683Z,8.05
2022-09-06T18:45:49.743Z,5.75
2022-09-06T18:48:16.611Z,4.45
2022-09-06T18:50:45.372Z,7.60
2022-09-06T18:53:11.957Z,8.70
2022-09-06T18:55:43.013Z,8.13
2022-09-06T18:58:10.806Z,11.68
2022-09-06T19:00:39.626Z,14.00
2022-09-06T19:03:06.132Z,4.82
2022-09-06T19:05:34.593Z,7.07
2022-09-06T19:08:00.990Z,6.70
2022-09-06T19:10:29.701Z,13.43
2022-09-06T19:12:57.094Z,9.70
2022-09-06T19:15:24.117Z,8.63
2022-09-06T19:17:50.859Z,7.93
2022-09-06T19:20:20.803Z,5.47
2022-09-06T19:22:52.619Z,6.00
2022-09-06T19:25:19.116Z,8.40
2022-09-06T19:27:48.787Z,8.27
2022-09-06T19:30:15.426Z,7.47
2022-09-06T19:32:41.820Z,9.45
2022-09-06T19:35:08.498Z,7.93
2022-09-06T19:37:34.950Z,7.90
2022-09-06T19:40:01.565Z,10.32
2022-09-06T19:42:27.941Z,12.82
2022-09-06T19:44:54.660Z,7.15
2022-09-06T19:47:21.130Z,8.88
2022-09-06T19:49:47.584Z,7.10
2022-09-06T19:52:14.092Z,10.00
2022-09-06T19:54:40.545Z,8.13
2022-09-06T19:57:07.059Z,7.93
2022-09-06T19:59:36.042Z,13.88
2022-09-06T20:02:03.407Z,9.98
2022-09-06T20:04:29.881Z,8.50
2022-09-06T20:06:56.350Z,5.82
2022-09-06T20:09:27.616Z,6.43
2022-09-06T20:11:53.986Z,5.38
2022-09-06T20:14:20.418Z,5.60
2022-09-06T20:16:47.054Z,10.20
2022-09-06T20:19:15.182Z,8.32
2022-09-06T20:21:41.666Z,5.40
2022-09-06T20:24:08.377Z,8.60
2022-09-06T20:26:34.759Z,9.40
2022-09-06T20:29:01.891Z,9.05
2022-09-06T20:31:29.539Z,7.00
2022-09-06T20:33:56.217Z,4.13
2022-09-06T20:36:22.752Z,7.20
2022-09-06T20:38:49.874Z,9.95
2022-09-06T20:41:17.787Z,9.15
2022-09-06T20:43:44.609Z,15.30
2022-09-06T20:46:12.434Z,11.02
2022-09-06T20:48:43.574Z,16.15
2022-09-06T20:51:15.659Z,11.60
2022-09-06T20:53:45.036Z,11.82
2022-09-06T20:56:13.033Z,13.23
2022-09-06T20:58:42.308Z,19.63
2022-09-06T21:01:12.237Z,9.05
2022-09-06T21:03:39.473Z,14.63
2022-09-06T21:06:09.269Z,7.25
2022-09-06T21:08:42.565Z,8.20
2022-09-06T21:11:09.770Z,8.90
2022-09-06T21:13:39.647Z,12.63
2022-09-06T21:16:06.465Z,7.95
2022-09-06T21:18:33.515Z,10.20
2022-09-06T21:21:01.556Z,12.02
2022-09-06T21:23:29.248Z,9.60
2022-09-06T21:25:58.835Z,10.30
2022-09-06T21:28:27.159Z,13.48
2022-09-06T21:31:03.539Z,11.85
2022-09-06T21:33:31.312Z,9.88
2022-09-06T21:35:59.146Z,10.43
2022-09-06T21:38:25.595Z,11.13
2022-09-06T21:40:52.054Z,8.40
2022-09-06T21:43:20.821Z,7.93
2022-09-06T21:45:47.249Z,8.15
2022-09-06T21:48:18.158Z,6.30
2022-09-06T21:50:45.285Z,8.55
2022-09-06T21:53:11.697Z,8.93
2022-09-06T21:55:38.089Z,8.10
2022-09-06T21:58:04.517Z,12.07
2022-09-06T22:00:30.912Z,15.90
2022-09-06T22:02:57.290Z,13.57
2022-09-06T22:05:23.718Z,15.63
2022-09-06T22:07:50.124Z,13.57
2022-09-06T22:10:16.628Z,12.13
2022-09-06T22:12:43.024Z,15.48
2022-09-06T22:15:10.353Z,16.10
2022-09-06T22:17:37.241Z,16.88
2022-09-06T22:20:04.319Z,17.90
2022-09-06T22:22:30.706Z,10.52
2022-09-06T22:24:57.144Z,10.77
2022-09-06T22:27:23.488Z,6.85
2022-09-06T22:29:50.288Z,9.75
2022-09-06T22:32:24.147Z,13.10
2022-09-06T22:34:50.569Z,9.00
2022-09-06T22:37:16.940Z,11.70
2022-09-06T22:39:44.222Z,11.93
2022-09-06T22:42:10.800Z,8.25
2022-09-06T22:44:42.302Z,9.95
2022-09-06T22:47:08.858Z,10.18
2022-09-06T22:49:35.303Z,9.85
2022-09-06T22:52:01.768Z,8.88
2022-09-06T22:54:28.874Z,8.57
2022-09-06T22:56:57.833Z,8.50
2022-09-06T22:59:24.225Z,9.85
2022-09-06T23:01:50.639Z,15.63
2022-09-06T23:04:17.144Z,11.23
2022-09-06T23:06:43.547Z,15.65
2022-09-06T23:09:12.476Z,12.52
2022-09-06T23:11:38.905Z,8.25
2022-09-06T23:14:05.363Z,9.23
2022-09-06T23:16:34.211Z,13.60
2022-09-06T23:19:01.119Z,8.88
2022-09-06T23:21:27.536Z,12.55
2022-09-06T23:23:55.041Z,6.22
2022-09-06T23:26:23.018Z,8.90
2022-09-06T23:28:56.402Z,9.27
2022-09-06T23:31:24.182Z,12.57
2022-09-06T23:33:54.432Z,13.75
2022-09-06T23:36:21.156Z,7.70
2022-09-06T23:38:47.686Z,4.55
2022-09-06T23:41:14.245Z,15.15
2022-09-06T23:43:42.691Z,11.88
2022-09-06T23:46:12.661Z,7.93
2022-09-06T23:48:39.175Z,10.07
2022-09-06T23:51:05.734Z,9.95
2022-09-06T23:53:34.562Z,7.32
2022-09-06T23:56:03.688Z,6.72
2022-09-06T23:58:30.183Z,9.85
